»·PEaware :: WAT1905 KBLI-KSZT

WAT1905 :: KBLI-KSZT

FLIGHT INFORMATION

Flight Status: Arrived
Operator:
Walker Air Transport
More flights by this operator :: More flights under this callsign
Pilot: Jonathan P. (42949)
Aircraft: CANADAIR CL-600 CHALLENGER
(CL60)
More flights by this aircraft type
Origin: KBLI Bellingham Intl
United States
Destination: KSZT Sandpoint
United States
More flights between these airports :: More routes between these airports
Route: KLSHN1 DNHRT CRNEL AALIX METOO PRRKS DIANN
File this flight plan on PilotEdge
Remarks: RMK / SIMBRIEF
Altitude:
(Current/Filed)
37,000ft
Speed:
(Current/Filed)
464kts
Departed: 14-Oct-23 07:34 AM
Arrived: 14-Oct-23 08:18 AM
Distance/Time
Traveled:
239nm/0:44
Distance/Time
To Go:
Arrived

Flight Plot

Page will automatically refresh every two minutes.

Flight plan parsing failed; only flown route is shown


Map Options




Map Legend


Flown Route
Filed Route
Departure Airport
Arrival Airport
Navaid (VOR, NDB)
Fix

Horizontal Profiles

Position Reports

Time Latitude Longitude Heading Altitude Ground
Speed
14-Oct-23 07:19 48.793623 -122.531747 0 165ft 0kts
14-Oct-23 07:20 48.793623 -122.531747 134 165ft 0kts
14-Oct-23 07:21 48.793623 -122.531747 134 165ft 0kts
14-Oct-23 07:22 48.793623 -122.531747 134 165ft 0kts
14-Oct-23 07:23 48.793623 -122.531747 134 165ft 0kts
14-Oct-23 07:24 48.793623 -122.531747 134 165ft 0kts
14-Oct-23 07:25 48.793623 -122.531747 134 165ft 0kts
14-Oct-23 07:26 48.793623 -122.531747 134 165ft 0kts
14-Oct-23 07:27 48.793623 -122.531747 134 165ft 0kts
14-Oct-23 07:28 48.793623 -122.531747 134 165ft 0kts
14-Oct-23 07:29 48.793451 -122.531874 219 165ft 0kts
14-Oct-23 07:30 48.793747 -122.532956 324 163ft 14kts
14-Oct-23 07:31 48.797565 -122.535847 359 162ft 13kts
14-Oct-23 07:32 48.801729 -122.536117 297 152ft 13kts
14-Oct-23 07:33 48.779116 -122.538063 181 991ft 199kts
14-Oct-23 07:34 48.719802 -122.558202 191 5617ft 263kts
14-Oct-23 07:35 48.647908 -122.583978 192 8029ft 286kts
14-Oct-23 07:36 48.573057 -122.590863 155 14238ft 295kts
14-Oct-23 07:37 48.532508 -122.478305 112 18729ft 334kts
14-Oct-23 07:38 48.499904 -122.340697 113 22274ft 367kts
14-Oct-23 07:39 48.474280 -122.187643 84 25425ft 399kts
14-Oct-23 07:40 48.486375 -122.016628 85 28169ft 423kts
14-Oct-23 07:41 48.498814 -121.835736 85 30460ft 446kts
14-Oct-23 07:42 48.497058 -121.646213 97 32215ft 468kts
14-Oct-23 07:43 48.483228 -121.448111 97 33911ft 484kts
14-Oct-23 07:44 48.469202 -121.250680 98 36487ft 465kts
14-Oct-23 07:45 48.454784 -121.053093 98 36993ft 492kts
14-Oct-23 07:46 48.439095 -120.842996 98 37029ft 518kts
14-Oct-23 07:47 48.422576 -120.626787 98 37041ft 527kts
14-Oct-23 07:48 48.405590 -120.409602 98 37128ft 523kts
14-Oct-23 07:49 48.388271 -120.193380 99 37198ft 516kts
14-Oct-23 07:50 48.371119 -119.979875 99 37567ft 520kts
14-Oct-23 07:51 48.353695 -119.765386 99 37518ft 517kts
14-Oct-23 07:52 48.335977 -119.552345 99 37524ft 514kts
14-Oct-23 07:53 48.317855 -119.339385 100 37490ft 515kts
14-Oct-23 07:54 48.299359 -119.126761 100 37499ft 513kts
14-Oct-23 07:55 48.280615 -118.915951 100 37513ft 511kts
14-Oct-23 07:56 48.261711 -118.707750 100 37493ft 511kts
14-Oct-23 07:57 48.242239 -118.497578 99 37553ft 509kts
14-Oct-23 07:58 48.222417 -118.287962 100 37576ft 509kts
14-Oct-23 07:59 48.202416 -118.080594 100 37585ft 508kts
14-Oct-23 08:00 48.182085 -117.873744 100 37587ft 504kts
14-Oct-23 08:01 48.161618 -117.669343 100 35420ft 493kts
14-Oct-23 08:02 48.149323 -117.467001 88 31589ft 491kts
14-Oct-23 08:03 48.159424 -117.269412 89 28222ft 468kts
14-Oct-23 08:04 48.155851 -117.082106 101 25132ft 439kts
14-Oct-23 08:05 48.139902 -116.906566 101 22153ft 416kts
14-Oct-23 08:06 48.125067 -116.739623 94 19236ft 398kts
14-Oct-23 08:07 48.143411 -116.580611 80 16424ft 385kts
14-Oct-23 08:08 48.172026 -116.432331 53 13653ft 360kts
14-Oct-23 08:09 48.248505 -116.370123 14 11238ft 277kts
14-Oct-23 08:10 48.318613 -116.339876 15 9356ft 251kts
14-Oct-23 08:11 48.382571 -116.332292 321 7536ft 223kts
14-Oct-23 08:12 48.411754 -116.404259 294 5945ft 196kts
14-Oct-23 08:13 48.397469 -116.468109 211 4875ft 187kts
14-Oct-23 08:14 48.359161 -116.503971 211 3980ft 129kts
14-Oct-23 08:15 48.328847 -116.532605 208 3357ft 127kts
14-Oct-23 08:16 48.299866 -116.559818 212 2137ft 92kts
14-Oct-23 08:17 48.294901 -116.562837 163 2134ft 8kts
14-Oct-23 08:18 48.294695 -116.562873 209 2134ft 0kts
14-Oct-23 08:19 48.294695 -116.562873 209 2134ft 0kts

Navigation Log

Ident Type
Flight plan parsing failed, navigation log unavailable